createdAt,value
2022-11-09T00:01:10.708Z,2.16
2022-11-09T00:06:38.825Z,2.11
2022-11-09T00:12:04.964Z,2.04
2022-11-09T00:17:29.301Z,1.98
2022-11-09T00:23:00.003Z,1.90
2022-11-09T00:28:28.556Z,1.88
2022-11-09T00:33:55.667Z,1.86
2022-11-09T00:39:20.477Z,1.89
2022-11-09T00:44:43.946Z,1.95
2022-11-09T00:50:07.769Z,1.98
2022-11-09T00:55:38.512Z,1.99
2022-11-09T01:01:11.236Z,2.03
2022-11-09T01:06:34.429Z,2.06
2022-11-09T01:12:06.617Z,2.04
2022-11-09T01:17:35.191Z,2.04
2022-11-09T01:23:04.411Z,2.10
2022-11-09T01:28:35.234Z,2.15
2022-11-09T01:33:59.860Z,2.19
2022-11-09T01:39:24.823Z,2.24
2022-11-09T01:45:06.023Z,2.28
2022-11-09T01:50:40.747Z,2.28
2022-11-09T01:56:14.980Z,2.34
2022-11-09T02:01:46.806Z,2.36
2022-11-09T02:07:15.742Z,2.36
2022-11-09T02:12:45.869Z,2.33
2022-11-09T02:18:16.060Z,2.36
2022-11-09T02:23:47.465Z,2.38
2022-11-09T02:29:26.061Z,2.38
2022-11-09T02:34:48.994Z,2.34
2022-11-09T02:40:22.061Z,2.37
2022-11-09T02:45:51.660Z,2.40
2022-11-09T02:51:14.947Z,2.41
2022-11-09T02:56:43.013Z,2.14
2022-11-09T03:02:06.807Z,2.09
2022-11-09T03:07:30.415Z,2.03
2022-11-09T03:13:00.828Z,2.16
2022-11-09T03:18:25.002Z,2.26
2022-11-09T03:23:54.011Z,2.37
2022-11-09T03:29:25.225Z,2.44
2022-11-09T03:34:54.709Z,2.46
2022-11-09T03:40:23.647Z,2.50
2022-11-09T03:45:54.362Z,2.54
2022-11-09T03:51:23.720Z,2.55
2022-11-09T03:56:48.784Z,2.57
2022-11-09T04:02:13.748Z,2.60
2022-11-09T04:07:47.863Z,2.65
2022-11-09T04:13:11.442Z,2.62
2022-11-09T04:18:41.356Z,2.58
2022-11-09T04:24:06.220Z,2.58
2022-11-09T04:29:34.539Z,2.51
2022-11-09T04:34:59.359Z,2.49
2022-11-09T04:40:31.340Z,2.53
2022-11-09T04:46:02.065Z,2.55
2022-11-09T04:51:31.976Z,2.59
2022-11-09T04:56:56.457Z,2.60
2022-11-09T05:02:25.708Z,2.45
2022-11-09T05:07:51.436Z,2.45
2022-11-09T05:13:15.126Z,2.44
2022-11-09T05:18:43.614Z,2.47
2022-11-09T05:24:14.237Z,2.47
2022-11-09T05:29:43.003Z,2.42
2022-11-09T05:35:12.032Z,2.36
2022-11-09T05:40:37.989Z,2.28
2022-11-09T05:46:08.343Z,2.28
2022-11-09T05:51:37.272Z,2.32
2022-11-09T05:57:07.884Z,2.23
2022-11-09T06:02:36.407Z,2.26
2022-11-09T06:08:06.739Z,2.31
2022-11-09T06:13:37.196Z,2.35
2022-11-09T06:19:05.326Z,2.39
2022-11-09T06:24:34.544Z,2.42
2022-11-09T06:30:04.109Z,2.43
2022-11-09T06:35:32.760Z,2.51
2022-11-09T06:40:56.913Z,2.58
2022-11-09T06:46:27.177Z,2.61
2022-11-09T06:51:54.601Z,2.59
2022-11-09T06:57:23.906Z,2.69
2022-11-09T07:02:54.478Z,2.76
2022-11-09T07:08:23.785Z,2.86
2022-11-09T07:13:57.264Z,2.98
2022-11-09T07:19:29.632Z,3.17
2022-11-09T07:24:52.669Z,3.28
2022-11-09T07:30:21.890Z,3.37
2022-11-09T07:35:52.004Z,3.47
2022-11-09T07:41:15.863Z,3.66
2022-11-09T07:46:39.127Z,3.82
2022-11-09T07:52:04.815Z,3.91
2022-11-09T07:57:28.154Z,3.92
2022-11-09T08:02:51.393Z,3.97
2022-11-09T08:08:17.287Z,4.00
2022-11-09T08:13:44.821Z,4.07
2022-11-09T08:19:11.699Z,4.07
2022-11-09T08:24:44.197Z,4.11
2022-11-09T08:30:08.852Z,4.22
2022-11-09T08:35:39.710Z,4.35
2022-11-09T08:41:09.270Z,4.35
2022-11-09T08:46:40.973Z,4.45
2022-11-09T08:52:04.666Z,4.53
2022-11-09T08:57:31.810Z,4.45
2022-11-09T09:08:57.500Z,4.53
2022-11-09T09:14:26.972Z,4.40
2022-11-09T09:19:56.044Z,4.52
2022-11-09T09:25:20.803Z,4.65
2022-11-09T09:30:52.587Z,4.82
2022-11-09T09:36:21.881Z,4.88
2022-11-09T09:41:54.168Z,5.04
2022-11-09T09:47:23.659Z,5.13
2022-11-09T09:53:18.075Z,5.23
2022-11-09T09:58:50.711Z,5.17
2022-11-09T10:04:24.671Z,5.11
2022-11-09T10:10:11.336Z,5.25
2022-11-09T10:15:46.193Z,5.35
2022-11-09T10:21:30.347Z,5.48
2022-11-09T10:27:01.844Z,5.37
2022-11-09T10:32:33.465Z,5.27
2022-11-09T10:38:05.238Z,5.28
2022-11-09T10:43:34.752Z,5.32
2022-11-09T10:49:23.249Z,5.32
2022-11-09T10:55:30.651Z,5.32
2022-11-09T11:01:22.320Z,4.83
2022-11-09T11:07:20.757Z,4.37
2022-11-09T11:13:27.847Z,4.80
2022-11-09T11:19:33.075Z,5.12
2022-11-09T11:30:30.484Z,4.92
2022-11-09T11:36:25.946Z,5.22
2022-11-09T11:42:30.453Z,5.35
2022-11-09T11:48:39.113Z,5.48
2022-11-09T11:54:38.957Z,5.52
2022-11-09T12:00:26.827Z,5.60
2022-11-09T12:06:31.770Z,5.62
2022-11-09T12:12:31.750Z,5.57
2022-11-09T12:18:35.503Z,5.62
2022-11-09T12:24:30.522Z,5.60
2022-11-09T12:30:21.452Z,5.59
2022-11-09T12:36:16.893Z,5.58
2022-11-09T12:42:12.479Z,5.62
2022-11-09T12:48:04.851Z,5.61
2022-11-09T12:53:52.858Z,5.61
2022-11-09T12:59:50.213Z,5.60
2022-11-09T13:05:40.418Z,5.54
2022-11-09T13:11:35.876Z,5.51
2022-11-09T13:18:03.643Z,5.42
2022-11-09T13:24:01.535Z,5.39
2022-11-09T13:29:56.043Z,5.38
2022-11-09T13:36:16.572Z,5.35
2022-11-09T13:42:26.735Z,5.34
2022-11-09T13:48:32.445Z,5.30
2022-11-09T13:54:30.748Z,5.15
2022-11-09T14:00:23.576Z,5.15
2022-11-09T14:06:13.860Z,5.14
2022-11-09T14:12:17.579Z,5.15
2022-11-09T14:18:26.630Z,5.13
2022-11-09T14:24:18.667Z,5.11
2022-11-09T14:30:17.420Z,5.08
2022-11-09T14:36:07.078Z,5.02
2022-11-09T14:41:57.753Z,4.95
2022-11-09T14:47:47.350Z,4.92
2022-11-09T14:53:38.435Z,4.92
2022-11-09T14:59:32.188Z,4.90
2022-11-09T15:05:32.090Z,4.85
2022-11-09T15:11:21.872Z,4.79
2022-11-09T15:17:16.769Z,4.73
2022-11-09T15:23:06.633Z,4.61
2022-11-09T15:28:58.969Z,4.55
2022-11-09T15:34:55.829Z,4.45
2022-11-09T15:40:43.126Z,4.41
2022-11-09T15:46:37.268Z,4.28
2022-11-09T15:52:26.278Z,4.19
2022-11-09T15:58:16.378Z,4.05
2022-11-09T16:04:05.859Z,4.02
2022-11-09T16:09:53.567Z,4.01
2022-11-09T16:15:40.921Z,4.02
2022-11-09T16:21:29.758Z,3.91
2022-11-09T16:27:43.441Z,3.87
2022-11-09T16:33:25.540Z,3.75
2022-11-09T16:39:17.303Z,3.72
2022-11-09T16:45:10.217Z,3.69
2022-11-09T16:50:58.083Z,3.58
2022-11-09T16:56:48.138Z,3.47
2022-11-09T17:02:36.289Z,3.40
2022-11-09T17:08:23.983Z,3.35
2022-11-09T17:14:13.997Z,3.29
2022-11-09T17:20:05.110Z,3.25
2022-11-09T17:25:56.599Z,3.18
2022-11-09T17:31:47.543Z,3.14
2022-11-09T17:37:38.533Z,3.11
2022-11-09T17:43:26.480Z,2.98
2022-11-09T17:49:15.768Z,2.81
2022-11-09T17:55:11.638Z,2.76
2022-11-09T18:01:07.075Z,2.69
2022-11-09T18:06:58.247Z,2.67
2022-11-09T18:12:47.686Z,2.68
2022-11-09T18:18:42.638Z,2.59
2022-11-09T18:24:32.993Z,2.43
2022-11-09T18:30:23.745Z,2.34
2022-11-09T18:36:15.071Z,2.36
2022-11-09T18:42:05.653Z,2.35
2022-11-09T18:47:56.762Z,2.38
2022-11-09T18:53:46.862Z,2.32
2022-11-09T18:59:40.060Z,2.27
2022-11-09T19:05:28.259Z,2.23
2022-11-09T19:11:19.751Z,2.26
2022-11-09T19:17:19.203Z,2.24
2022-11-09T19:23:07.836Z,2.19
2022-11-09T19:28:56.461Z,2.12
2022-11-09T19:34:46.205Z,2.09
2022-11-09T19:40:39.814Z,2.04
2022-11-09T19:46:30.506Z,2.06
2022-11-09T19:52:19.315Z,2.05
2022-11-09T19:58:07.477Z,2.05
2022-11-09T20:03:59.221Z,2.03
2022-11-09T20:09:52.007Z,1.99
2022-11-09T20:15:40.156Z,1.95
2022-11-09T20:21:27.942Z,1.78
2022-11-09T20:27:23.776Z,1.59
2022-11-09T20:33:13.899Z,1.67
2022-11-09T20:39:01.866Z,1.61
2022-11-09T20:44:54.694Z,1.59
2022-11-09T20:50:42.515Z,1.63
2022-11-09T20:56:31.816Z,1.69
2022-11-09T21:02:21.332Z,1.74
2022-11-09T21:08:09.690Z,1.73
2022-11-09T21:13:57.649Z,1.68
2022-11-09T21:19:47.085Z,1.45
2022-11-09T21:25:51.354Z,1.36
2022-11-09T21:31:38.507Z,1.39
2022-11-09T21:37:28.138Z,1.40
2022-11-09T21:43:16.078Z,1.25
2022-11-09T21:49:04.123Z,1.18
2022-11-09T21:54:53.035Z,0.98
2022-11-09T22:00:40.813Z,0.84
2022-11-09T22:06:29.231Z,0.86
2022-11-09T22:12:36.448Z,0.96
2022-11-09T22:18:47.206Z,1.00
2022-11-09T22:24:36.594Z,0.91
2022-11-09T22:30:26.269Z,0.84
2022-11-09T22:36:15.443Z,0.84
2022-11-09T22:42:02.710Z,0.77
2022-11-09T22:47:52.061Z,0.80
2022-11-09T22:53:39.728Z,0.62
2022-11-09T22:59:27.732Z,0.64
2022-11-09T23:05:17.109Z,0.70
2022-11-09T23:11:05.252Z,0.77
2022-11-09T23:16:53.495Z,0.80
2022-11-09T23:22:42.005Z,0.90
2022-11-09T23:28:29.687Z,1.01
2022-11-09T23:34:17.438Z,1.08
2022-11-09T23:40:07.803Z,1.11
2022-11-09T23:45:57.109Z,1.21
2022-11-09T23:51:44.611Z,1.26
2022-11-09T23:57:34.105Z,1.29
